ELY199 MPTO-MROC
Flight info
| Callsign | ELY199 |
|---|---|
| Flight time | 0h 57m |
| Altitude | 34000 |
| Route | PUDOS DCT ISEBA CUARE3I |
| Aircraft | B772/H-SDE2E3FGHIJ5LORVWXY/LB1D1 |
Departure
| Time | 2026-05-09 11:49 |
|---|---|
| Airport | Tocumen International Airport (MPTO) |
Arrival
| Time | 2026-05-09 12:47 |
|---|---|
| Airport | Juan Santamaría International Airport (MROC) |
| Time | Latitude | Longitude | Altitude | Speed | Heading |
|---|---|---|---|---|---|
| 2026-05-09 11:33 | 9.07039 | -79.38337 | 35 ft | 0 kts | 169° |
| 2026-05-09 11:40 | 9.07041 | -79.38337 | 35 ft | 2 kts | 169° |
| 2026-05-09 11:40 | 9.07066 | -79.38342 | 35 ft | 4 kts | 172° |
| 2026-05-09 11:40 | 9.07093 | -79.38345 | 35 ft | 4 kts | 172° |
| 2026-05-09 11:41 | 9.07120 | -79.38350 | 35 ft | 4 kts | 170° |
| 2026-05-09 11:41 | 9.07144 | -79.38354 | 35 ft | 4 kts | 175° |
| 2026-05-09 11:41 | 9.07163 | -79.38348 | 35 ft | 4 kts | 246° |
| 2026-05-09 11:41 | 9.07172 | -79.38324 | 35 ft | 3 kts | 244° |
| 2026-05-09 11:42 | 9.07175 | -79.38318 | 35 ft | 0 kts | 243° |
| 2026-05-09 11:44 | 9.07165 | -79.38335 | 35 ft | 9 kts | 237° |
| 2026-05-09 11:44 | 9.07086 | -79.38398 | 35 ft | 20 kts | 212° |
| 2026-05-09 11:44 | 9.06948 | -79.38453 | 35 ft | 22 kts | 170° |
| 2026-05-09 11:44 | 9.06868 | -79.38328 | 35 ft | 22 kts | 107° |
| 2026-05-09 11:45 | 9.06738 | -79.38314 | 34 ft | 22 kts | 208° |
| 2026-05-09 11:45 | 9.06603 | -79.38386 | 34 ft | 22 kts | 208° |
| 2026-05-09 11:45 | 9.06472 | -79.38462 | 34 ft | 22 kts | 210° |
| 2026-05-09 11:45 | 9.06339 | -79.38538 | 35 ft | 22 kts | 209° |
| 2026-05-09 11:46 | 9.06204 | -79.38615 | 35 ft | 22 kts | 209° |
| 2026-05-09 11:46 | 9.06071 | -79.38691 | 35 ft | 22 kts | 209° |
| 2026-05-09 11:46 | 9.05938 | -79.38766 | 35 ft | 22 kts | 209° |
| 2026-05-09 11:46 | 9.05804 | -79.38842 | 35 ft | 22 kts | 209° |
| 2026-05-09 11:47 | 9.05671 | -79.38918 | 35 ft | 22 kts | 209° |
| 2026-05-09 11:47 | 9.05540 | -79.38993 | 34 ft | 22 kts | 209° |
| 2026-05-09 11:47 | 9.05407 | -79.39069 | 35 ft | 22 kts | 209° |
| 2026-05-09 11:47 | 9.05274 | -79.39144 | 35 ft | 22 kts | 209° |
| 2026-05-09 11:48 | 9.05145 | -79.39226 | 35 ft | 22 kts | 209° |
| 2026-05-09 11:48 | 9.05012 | -79.39302 | 35 ft | 22 kts | 209° |
| 2026-05-09 11:48 | 9.04875 | -79.39368 | 35 ft | 22 kts | 180° |
| 2026-05-09 11:48 | 9.04795 | -79.39259 | 36 ft | 19 kts | 72° |
| 2026-05-09 11:49 | 9.04943 | -79.39159 | 36 ft | 51 kts | 28° |
| 2026-05-09 11:49 | 9.05534 | -79.38823 | 36 ft | 142 kts | 29° |
| 2026-05-09 11:49 | 9.06558 | -79.38260 | 557 ft | 176 kts | 28° |
| 2026-05-09 11:49 | 9.07623 | -79.37713 | 1846 ft | 171 kts | 25° |
| 2026-05-09 11:50 | 9.08689 | -79.37206 | 2694 ft | 174 kts | 27° |
| 2026-05-09 11:50 | 9.09811 | -79.36542 | 3062 ft | 204 kts | 30° |
| 2026-05-09 11:50 | 9.11127 | -79.35762 | 3457 ft | 231 kts | 30° |
| 2026-05-09 11:50 | 9.12551 | -79.34922 | 4209 ft | 244 kts | 30° |
| 2026-05-09 11:51 | 9.14085 | -79.34023 | 4877 ft | 262 kts | 30° |
| 2026-05-09 11:51 | 9.15690 | -79.33088 | 5785 ft | 270 kts | 30° |
| 2026-05-09 11:51 | 9.17343 | -79.32130 | 6710 ft | 276 kts | 30° |
| 2026-05-09 11:51 | 9.19022 | -79.31160 | 7679 ft | 280 kts | 30° |
| 2026-05-09 11:52 | 9.20737 | -79.30199 | 8524 ft | 282 kts | 25° |
| 2026-05-09 11:52 | 9.22692 | -79.29868 | 9213 ft | 293 kts | 354° |
| 2026-05-09 11:52 | 9.24622 | -79.30561 | 10072 ft | 300 kts | 328° |
| 2026-05-09 11:52 | 9.26163 | -79.32046 | 10635 ft | 321 kts | 305° |
| 2026-05-09 11:53 | 9.27105 | -79.34142 | 11391 ft | 335 kts | 286° |
| 2026-05-09 11:53 | 9.27427 | -79.36511 | 12388 ft | 343 kts | 271° |
| 2026-05-09 11:53 | 9.27391 | -79.38938 | 13523 ft | 346 kts | 268° |
| 2026-05-09 11:53 | 9.27235 | -79.41387 | 14638 ft | 351 kts | 265° |
| 2026-05-09 11:54 | 9.26978 | -79.43863 | 15739 ft | 356 kts | 263° |
| 2026-05-09 11:54 | 9.26681 | -79.46366 | 16853 ft | 360 kts | 263° |
| 2026-05-09 11:54 | 9.26371 | -79.48896 | 17943 ft | 365 kts | 262° |
| 2026-05-09 11:54 | 9.26069 | -79.51382 | 18940 ft | 370 kts | 262° |
| 2026-05-09 11:55 | 9.25758 | -79.53988 | 19894 ft | 376 kts | 263° |
| 2026-05-09 11:56 | 9.24183 | -79.67678 | 24214 ft | 409 kts | 263° |
| 2026-05-09 11:56 | 9.23857 | -79.70564 | 25026 ft | 415 kts | 263° |
| 2026-05-09 11:56 | 9.23526 | -79.73481 | 25839 ft | 420 kts | 263° |
| 2026-05-09 11:57 | 9.23191 | -79.76436 | 26653 ft | 425 kts | 263° |
| 2026-05-09 11:57 | 9.22853 | -79.79417 | 27451 ft | 429 kts | 263° |
| 2026-05-09 11:57 | 9.22515 | -79.82391 | 28247 ft | 433 kts | 263° |
| 2026-05-09 11:57 | 9.22170 | -79.85430 | 28997 ft | 437 kts | 263° |
| 2026-05-09 11:58 | 9.21826 | -79.88459 | 29772 ft | 439 kts | 263° |
| 2026-05-09 11:58 | 9.21478 | -79.91518 | 30695 ft | 436 kts | 263° |
| 2026-05-09 11:58 | 9.21128 | -79.94594 | 31690 ft | 431 kts | 263° |
| 2026-05-09 11:58 | 9.20788 | -79.97597 | 32593 ft | 427 kts | 263° |
| 2026-05-09 11:59 | 9.20449 | -80.00572 | 33399 ft | 426 kts | 263° |
| 2026-05-09 11:59 | 9.20113 | -80.03504 | 33817 ft | 423 kts | 263° |
| 2026-05-09 11:59 | 9.19774 | -80.06465 | 33809 ft | 423 kts | 263° |
| 2026-05-09 12:00 | 9.19093 | -80.12412 | 33820 ft | 423 kts | 263° |
| 2026-05-09 12:00 | 9.18414 | -80.18325 | 33815 ft | 423 kts | 263° |
| 2026-05-09 12:01 | 9.17739 | -80.24209 | 33808 ft | 424 kts | 263° |
| 2026-05-09 12:01 | 9.17059 | -80.30136 | 33817 ft | 424 kts | 263° |
| 2026-05-09 12:02 | 9.16377 | -80.36053 | 33814 ft | 423 kts | 263° |
| 2026-05-09 12:02 | 9.15695 | -80.41970 | 33818 ft | 423 kts | 263° |
| 2026-05-09 12:03 | 9.15012 | -80.47890 | 33845 ft | 424 kts | 263° |
| 2026-05-09 12:03 | 9.14328 | -80.53809 | 33843 ft | 424 kts | 263° |
| 2026-05-09 12:04 | 9.13642 | -80.59732 | 33841 ft | 424 kts | 263° |
| 2026-05-09 12:04 | 9.12956 | -80.65653 | 33842 ft | 424 kts | 263° |
| 2026-05-09 12:05 | 9.12276 | -80.71535 | 33843 ft | 423 kts | 263° |
| 2026-05-09 12:05 | 9.11587 | -80.77455 | 33843 ft | 424 kts | 263° |
| 2026-05-09 12:06 | 9.10898 | -80.83378 | 33843 ft | 424 kts | 263° |
| 2026-05-09 12:06 | 9.10209 | -80.89296 | 33847 ft | 424 kts | 263° |
| 2026-05-09 12:07 | 9.09519 | -80.95220 | 33852 ft | 424 kts | 263° |
| 2026-05-09 12:07 | 9.08932 | -81.00247 | 33853 ft | 424 kts | 264° |
| 2026-05-09 12:08 | 9.08931 | -81.06188 | 33854 ft | 422 kts | 277° |
| 2026-05-09 12:08 | 9.10129 | -81.11995 | 33858 ft | 422 kts | 285° |
| 2026-05-09 12:09 | 9.11622 | -81.17730 | 33853 ft | 422 kts | 285° |
| 2026-05-09 12:09 | 9.13113 | -81.23475 | 33861 ft | 422 kts | 285° |
| 2026-05-09 12:10 | 9.16040 | -81.34977 | 33862 ft | 422 kts | 285° |
| 2026-05-09 12:11 | 9.17490 | -81.40718 | 33867 ft | 422 kts | 285° |
| 2026-05-09 12:11 | 9.18943 | -81.46477 | 33870 ft | 422 kts | 285° |
| 2026-05-09 12:12 | 9.20391 | -81.52217 | 33871 ft | 421 kts | 285° |
| 2026-05-09 12:12 | 9.21841 | -81.57967 | 33881 ft | 421 kts | 285° |
| 2026-05-09 12:13 | 9.23280 | -81.63675 | 33881 ft | 422 kts | 285° |
| 2026-05-09 12:13 | 9.24728 | -81.69430 | 33881 ft | 422 kts | 285° |
| 2026-05-09 12:14 | 9.26178 | -81.75190 | 33886 ft | 422 kts | 285° |
| 2026-05-09 12:14 | 9.26900 | -81.78065 | 33886 ft | 421 kts | 285° |
| 2026-05-09 12:15 | 9.27059 | -81.78699 | 33888 ft | 421 kts | 285° |
| 2026-05-09 12:15 | 9.28387 | -81.83987 | 33891 ft | 421 kts | 285° |
| 2026-05-09 12:16 | 9.29826 | -81.89719 | 33899 ft | 420 kts | 285° |
| 2026-05-09 12:16 | 9.31265 | -81.95450 | 33893 ft | 420 kts | 285° |
| 2026-05-09 12:17 | 9.32701 | -82.01176 | 33902 ft | 420 kts | 285° |
| 2026-05-09 12:17 | 9.34137 | -82.06903 | 33906 ft | 420 kts | 285° |
| 2026-05-09 12:18 | 9.35430 | -82.12065 | 33911 ft | 420 kts | 285° |
| 2026-05-09 12:18 | 9.36871 | -82.17823 | 33910 ft | 420 kts | 285° |
| 2026-05-09 12:19 | 9.38306 | -82.23561 | 33917 ft | 420 kts | 285° |
| 2026-05-09 12:19 | 9.39740 | -82.29299 | 33920 ft | 421 kts | 285° |
| 2026-05-09 12:20 | 9.41173 | -82.35043 | 33909 ft | 421 kts | 285° |
| 2026-05-09 12:20 | 9.42608 | -82.40794 | 33906 ft | 421 kts | 285° |
| 2026-05-09 12:21 | 9.44030 | -82.46497 | 33909 ft | 420 kts | 285° |
| 2026-05-09 12:21 | 9.45458 | -82.52229 | 33916 ft | 420 kts | 285° |
| 2026-05-09 12:22 | 9.46887 | -82.57968 | 33910 ft | 420 kts | 285° |
| 2026-05-09 12:22 | 9.48314 | -82.63703 | 33905 ft | 420 kts | 285° |
| 2026-05-09 12:23 | 9.49738 | -82.69434 | 33908 ft | 420 kts | 285° |
| 2026-05-09 12:23 | 9.51166 | -82.75175 | 33908 ft | 420 kts | 285° |
| 2026-05-09 12:24 | 9.52589 | -82.80911 | 33909 ft | 420 kts | 285° |
| 2026-05-09 12:24 | 9.54013 | -82.86652 | 33906 ft | 420 kts | 285° |
| 2026-05-09 12:25 | 9.55443 | -82.92265 | 33912 ft | 420 kts | 285° |
| 2026-05-09 12:25 | 9.56924 | -82.97995 | 33907 ft | 420 kts | 285° |
| 2026-05-09 12:26 | 9.58400 | -83.03728 | 33806 ft | 422 kts | 285° |
| 2026-05-09 12:26 | 9.59143 | -83.06627 | 33224 ft | 427 kts | 285° |
| 2026-05-09 12:26 | 9.59893 | -83.09529 | 32652 ft | 426 kts | 285° |
| 2026-05-09 12:26 | 9.60644 | -83.12435 | 32143 ft | 426 kts | 286° |
| 2026-05-09 12:27 | 9.61491 | -83.15303 | 31668 ft | 423 kts | 289° |
| 2026-05-09 12:27 | 9.62475 | -83.18097 | 31208 ft | 420 kts | 291° |
| 2026-05-09 12:27 | 9.63511 | -83.20853 | 30751 ft | 416 kts | 291° |
| 2026-05-09 12:27 | 9.64536 | -83.23593 | 30298 ft | 416 kts | 291° |
| 2026-05-09 12:28 | 9.65541 | -83.26330 | 29848 ft | 413 kts | 290° |
| 2026-05-09 12:28 | 9.66526 | -83.29058 | 29381 ft | 411 kts | 290° |
| 2026-05-09 12:28 | 9.67498 | -83.31780 | 28896 ft | 410 kts | 290° |
| 2026-05-09 12:28 | 9.68464 | -83.34497 | 28403 ft | 409 kts | 290° |
| 2026-05-09 12:29 | 9.69414 | -83.37174 | 27930 ft | 408 kts | 290° |
| 2026-05-09 12:29 | 9.70373 | -83.39877 | 27433 ft | 407 kts | 290° |
| 2026-05-09 12:29 | 9.71329 | -83.42574 | 26953 ft | 406 kts | 290° |
| 2026-05-09 12:29 | 9.72283 | -83.45265 | 26480 ft | 405 kts | 290° |
| 2026-05-09 12:30 | 9.73235 | -83.47949 | 25999 ft | 404 kts | 290° |
| 2026-05-09 12:30 | 9.74183 | -83.50624 | 25527 ft | 403 kts | 290° |
| 2026-05-09 12:30 | 9.75048 | -83.56090 | 24578 ft | 391 kts | 264° |
| 2026-05-09 12:31 | 9.74768 | -83.58822 | 24160 ft | 390 kts | 264° |
| 2026-05-09 12:31 | 9.74312 | -83.64289 | 23269 ft | 388 kts | 265° |
| 2026-05-09 12:31 | 9.74118 | -83.67016 | 22832 ft | 388 kts | 265° |
| 2026-05-09 12:32 | 9.73926 | -83.69738 | 22399 ft | 387 kts | 265° |
| 2026-05-09 12:32 | 9.73732 | -83.72452 | 21948 ft | 386 kts | 265° |
| 2026-05-09 12:32 | 9.73539 | -83.75167 | 21504 ft | 385 kts | 265° |
| 2026-05-09 12:32 | 9.73347 | -83.77872 | 21050 ft | 385 kts | 265° |
| 2026-05-09 12:33 | 9.73153 | -83.80569 | 20597 ft | 384 kts | 265° |
| 2026-05-09 12:33 | 9.72959 | -83.83261 | 20146 ft | 383 kts | 265° |
| 2026-05-09 12:33 | 9.72761 | -83.85956 | 19755 ft | 381 kts | 265° |
| 2026-05-09 12:33 | 9.72558 | -83.88610 | 19436 ft | 376 kts | 265° |
| 2026-05-09 12:34 | 9.72356 | -83.91217 | 19225 ft | 366 kts | 265° |
| 2026-05-09 12:34 | 9.72160 | -83.93752 | 19048 ft | 356 kts | 265° |
| 2026-05-09 12:34 | 9.71970 | -83.96217 | 18847 ft | 347 kts | 265° |
| 2026-05-09 12:34 | 9.71783 | -83.98636 | 18519 ft | 342 kts | 265° |
| 2026-05-09 12:35 | 9.71600 | -84.01011 | 17991 ft | 334 kts | 265° |
| 2026-05-09 12:35 | 9.71421 | -84.03353 | 17232 ft | 333 kts | 265° |
| 2026-05-09 12:35 | 9.71242 | -84.05693 | 16493 ft | 332 kts | 265° |
| 2026-05-09 12:35 | 9.71064 | -84.08013 | 15853 ft | 328 kts | 265° |
| 2026-05-09 12:36 | 9.70886 | -84.10271 | 15426 ft | 313 kts | 265° |
| 2026-05-09 12:36 | 9.70715 | -84.12429 | 15031 ft | 303 kts | 265° |
| 2026-05-09 12:36 | 9.70551 | -84.14526 | 14690 ft | 307 kts | 265° |
| 2026-05-09 12:36 | 9.70376 | -84.16788 | 14290 ft | 326 kts | 265° |
| 2026-05-09 12:37 | 9.70198 | -84.19060 | 13866 ft | 328 kts | 265° |
| 2026-05-09 12:37 | 9.70019 | -84.21360 | 13440 ft | 326 kts | 266° |
| 2026-05-09 12:37 | 9.70123 | -84.23604 | 12998 ft | 317 kts | 285° |
| 2026-05-09 12:37 | 9.70948 | -84.25625 | 12638 ft | 306 kts | 296° |
| 2026-05-09 12:38 | 9.71840 | -84.27581 | 12243 ft | 306 kts | 295° |
| 2026-05-09 12:38 | 9.72713 | -84.29544 | 11857 ft | 305 kts | 295° |
| 2026-05-09 12:38 | 9.73580 | -84.31500 | 11465 ft | 304 kts | 295° |
| 2026-05-09 12:38 | 9.74443 | -84.33456 | 11072 ft | 304 kts | 294° |
| 2026-05-09 12:39 | 9.75302 | -84.35411 | 10661 ft | 303 kts | 295° |
| 2026-05-09 12:39 | 9.76151 | -84.37344 | 10494 ft | 295 kts | 295° |
| 2026-05-09 12:39 | 9.76972 | -84.39217 | 10341 ft | 287 kts | 295° |
| 2026-05-09 12:39 | 9.77770 | -84.41037 | 10187 ft | 278 kts | 295° |
| 2026-05-09 12:40 | 9.78539 | -84.42790 | 10097 ft | 267 kts | 295° |
| 2026-05-09 12:40 | 9.79556 | -84.44286 | 9916 ft | 258 kts | 322° |
| 2026-05-09 12:40 | 9.81139 | -84.45102 | 9583 ft | 254 kts | 345° |
| 2026-05-09 12:40 | 9.82851 | -84.45549 | 9257 ft | 254 kts | 346° |
| 2026-05-09 12:41 | 9.84565 | -84.46007 | 8922 ft | 256 kts | 346° |
| 2026-05-09 12:41 | 9.86302 | -84.46471 | 8559 ft | 258 kts | 347° |
| 2026-05-09 12:41 | 9.88053 | -84.46580 | 8190 ft | 253 kts | 13° |
| 2026-05-09 12:41 | 9.89595 | -84.45791 | 7870 ft | 250 kts | 44° |
| 2026-05-09 12:42 | 9.90574 | -84.44355 | 7537 ft | 247 kts | 64° |
| 2026-05-09 12:42 | 9.91230 | -84.42750 | 7151 ft | 246 kts | 69° |
| 2026-05-09 12:42 | 9.91816 | -84.41131 | 6829 ft | 243 kts | 70° |
| 2026-05-09 12:42 | 9.92402 | -84.39532 | 6510 ft | 241 kts | 69° |
| 2026-05-09 12:43 | 9.92990 | -84.37950 | 6187 ft | 239 kts | 69° |
| 2026-05-09 12:43 | 9.93574 | -84.36395 | 5858 ft | 227 kts | 69° |
| 2026-05-09 12:43 | 9.94112 | -84.34963 | 5566 ft | 208 kts | 69° |
| 2026-05-09 12:43 | 9.94604 | -84.33648 | 5296 ft | 192 kts | 69° |
| 2026-05-09 12:44 | 9.95068 | -84.32412 | 5048 ft | 189 kts | 69° |
| 2026-05-09 12:44 | 9.95530 | -84.31171 | 4828 ft | 187 kts | 69° |
| 2026-05-09 12:44 | 9.95988 | -84.29959 | 4587 ft | 178 kts | 70° |
| 2026-05-09 12:44 | 9.96408 | -84.28839 | 4336 ft | 161 kts | 70° |
| 2026-05-09 12:45 | 9.96781 | -84.27844 | 4151 ft | 141 kts | 70° |
| 2026-05-09 12:45 | 9.97113 | -84.26957 | 3977 ft | 131 kts | 71° |
| 2026-05-09 12:45 | 9.97435 | -84.26088 | 3793 ft | 131 kts | 71° |
| 2026-05-09 12:45 | 9.97753 | -84.25227 | 3563 ft | 129 kts | 71° |
| 2026-05-09 12:46 | 9.98081 | -84.24379 | 3461 ft | 130 kts | 70° |
| 2026-05-09 12:46 | 9.98403 | -84.23514 | 3281 ft | 131 kts | 71° |
| 2026-05-09 12:46 | 9.98732 | -84.22654 | 3100 ft | 130 kts | 70° |
| 2026-05-09 12:46 | 9.99051 | -84.21794 | 2981 ft | 128 kts | 70° |
| 2026-05-09 12:47 | 9.99304 | -84.21116 | 3011 ft | 60 kts | 69° |
| 2026-05-09 12:47 | 9.99444 | -84.20737 | 3037 ft | 52 kts | 69° |
| 2026-05-09 12:47 | 9.99538 | -84.20487 | 3043 ft | 25 kts | 64° |
| 2026-05-09 12:47 | 9.99577 | -84.20453 | 3042 ft | 3 kts | 21° |
| 2026-05-09 12:48 | 9.99619 | -84.20462 | 3039 ft | 9 kts | 313° |
| 2026-05-09 12:48 | 9.99622 | -84.20513 | 3041 ft | 13 kts | 257° |
| 2026-05-09 12:48 | 9.99585 | -84.20626 | 3041 ft | 21 kts | 250° |
| 2026-05-09 12:48 | 9.99530 | -84.20774 | 3040 ft | 23 kts | 249° |
| 2026-05-09 12:49 | 9.99494 | -84.20907 | 3038 ft | 16 kts | 288° |
| 2026-05-09 12:49 | 9.99550 | -84.21006 | 3030 ft | 18 kts | 270° |
| 2026-05-09 12:49 | 9.99531 | -84.21112 | 3020 ft | 1 kts | 258° |
| 2026-05-09 12:49 | 9.99535 | -84.21130 | 3017 ft | 4 kts | 290° |
| 2026-05-09 12:50 | 9.99555 | -84.21153 | 3015 ft | 5 kts | 321° |
| 2026-05-09 12:50 | 9.99581 | -84.21170 | 3015 ft | 5 kts | 331° |
| 2026-05-09 12:50 | 9.99601 | -84.21179 | 3015 ft | 0 kts | 337° |